Airfield :
LOGIN :

Register | Disclaimer

   EN    FR    IT 

 










Legend :    VFR   Marginal VFR   IFR   Intensive IFR   Very Intensive IFR
Visi :
Ceiling :
>= 8 km
>= 3000ft
5 to 8 km
1000 to 3000 ft
1500m to 5 km
500 to 1000 ft
800 to 1500m
200 to 500 ft
< 800m
< 200 ft
Symbols :   Thunderstorms  Fog  Heavy snow  Heavy precipitations  Wind > 20 kt
SIGMETs :     Misc.  Thunderstorms  Icing  Turbulence  Mountain Waves  Volcanic Ashes






- Airport Elevation : 1363 ft


ETIC - Grafenwohr Army Air Field

CURRENT METAR :
  • 180456Z AUTO 00000KT 9999 CLR 17/15 A2998 RMK AO2 SLP135 T01670149 $

EXPIRED METARs :
  • 180356Z AUTO 00000KT 9999 CLR 14/13 A2998 RMK AO2 SLP136 T01380127 $
  • 180256Z AUTO 00000KT 9999 CLR 14/12 A2997 RMK AO2 SLP133 T01350124 58003 $

TAF TAF ETIC
Valid from the 18 at 02:00 until the 19 at 08:00 UTC


180200Z 1802/1908 VRB06KT 8000 BR SKC QNH2997INS
BECMG 1806/1807 VRB06KT 9999 NSW FEW070 QNH2996INS TX30/1813Z TN14/1802Z



MET'MAP, your aeronautical weather chart ! - Copyright ORBIFLY December 2007 - Disclaimer

ORBIFLY MET'MAP TEAM :

Programming & Development : Alexandra Zaïnal
Concept & original design : Baudouin d'Aumeries
Assistance for programming : Marc-Olivier Méhu
Technical & hardware support : Manuel Goepfert

Contact : metmap@orbifly.com




SOURCES & CREDITS :

   NOAA